»·PEaware :: DAL1623 KRNO-KSLC

DAL1623 :: KRNO-KSLC

FLIGHT INFORMATION

Flight Status: Arrived
Operator:
Delta Air Lines
More flights by this operator :: More flights under this callsign
Pilot: Elias V. (31096)
Aircraft: AIRBUS A319
(A319)
More flights by this aircraft type
Origin: KRNO Reno/Tahoe Intl
United States
Destination: KSLC Salt Lake City Intl
United States
More flights between these airports :: More routes between these airports
Route: +ZEFFR6 BLKJK LLC BAM J154 BVL WAATS5
File this flight plan on PilotEdge
Remarks: RMK / SIMBRIEF
Altitude:
(Current/Filed)
37,000ft
Speed:
(Current/Filed)
445kts
Departed: 24-Oct-20 10:08 AM
Arrived: 24-Oct-20 11:14 AM
Distance/Time
Traveled:
365nm/1:06
Distance/Time
To Go:
Arrived

Flight Plot

Page will automatically refresh every two minutes.

Flight plan parsing failed; only flown route is shown


Map Options




Map Legend


Flown Route
Filed Route
Departure Airport
Arrival Airport
Navaid (VOR, NDB)
Fix

Horizontal Profiles

Position Reports

Time Latitude Longitude Heading Altitude Ground
Speed
24-Oct-20 09:38 39.504437 -119.773276 0 4423ft 0kts
24-Oct-20 09:39 39.504437 -119.773276 0 4423ft 0kts
24-Oct-20 09:40 39.504437 -119.773276 0 4423ft 0kts
24-Oct-20 09:41 39.504437 -119.773276 0 4423ft 0kts
24-Oct-20 09:42 39.504437 -119.773276 0 4423ft 0kts
24-Oct-20 09:43 39.504437 -119.773276 0 4423ft 0kts
24-Oct-20 09:44 39.504437 -119.773276 0 4423ft 0kts
24-Oct-20 09:45 39.504437 -119.773276 0 4423ft 0kts
24-Oct-20 09:46 39.504437 -119.773276 0 4423ft 0kts
24-Oct-20 09:48 39.504437 -119.773276 0 4423ft 0kts
24-Oct-20 09:49 39.504437 -119.773276 0 4423ft 0kts
24-Oct-20 09:50 39.504437 -119.773276 0 4423ft 0kts
24-Oct-20 09:51 39.504437 -119.773276 0 4423ft 0kts
24-Oct-20 09:52 39.504437 -119.773276 0 4423ft 0kts
24-Oct-20 09:53 39.504437 -119.773276 0 4423ft 0kts
24-Oct-20 09:54 39.504437 -119.773276 0 4423ft 0kts
24-Oct-20 09:55 39.504437 -119.773276 0 4423ft 0kts
24-Oct-20 09:56 39.504437 -119.773276 0 4423ft 0kts
24-Oct-20 09:57 39.504437 -119.773276 0 4423ft 0kts
24-Oct-20 09:58 39.504151 -119.773278 6 4423ft 2kts
24-Oct-20 09:59 39.503747 -119.773790 82 4423ft 2kts
24-Oct-20 10:00 39.503743 -119.773939 90 4423ft 0kts
24-Oct-20 10:01 39.503742 -119.773915 92 4423ft 1kts
24-Oct-20 10:01 39.503744 -119.772145 90 4423ft 0kts
24-Oct-20 10:03 39.503746 -119.771745 90 4423ft 13kts
24-Oct-20 10:04 39.507816 -119.770669 359 4423ft 19kts
24-Oct-20 10:05 39.512634 -119.770646 359 4423ft 21kts
24-Oct-20 10:06 39.513654 -119.770391 56 4423ft 0kts
24-Oct-20 10:06 39.513734 -119.769986 89 4423ft 5kts
24-Oct-20 10:08 39.499912 -119.769352 180 4424ft 162kts
24-Oct-20 10:08 39.460773 -119.768507 176 6785ft 170kts
24-Oct-20 10:09 39.404391 -119.769192 180 8387ft 236kts
24-Oct-20 10:10 39.329479 -119.766905 161 10317ft 300kts
24-Oct-20 10:11 39.281766 -119.678473 107 13152ft 319kts
24-Oct-20 10:12 39.316457 -119.575947 48 14759ft 358kts
24-Oct-20 10:13 39.385900 -119.469720 40 15928ft 415kts
24-Oct-20 10:14 39.472450 -119.366538 39 18357ft 428kts
24-Oct-20 10:15 39.560616 -119.260522 40 20536ft 439kts
24-Oct-20 10:16 39.651296 -119.151783 40 22442ft 449kts
24-Oct-20 10:17 39.743646 -119.040703 40 24126ft 458kts
24-Oct-20 10:18 39.836882 -118.928097 40 26011ft 455kts
24-Oct-20 10:19 39.928813 -118.816726 39 27860ft 449kts
24-Oct-20 10:20 40.019428 -118.706633 39 29538ft 443kts
24-Oct-20 10:21 40.104283 -118.591166 50 31023ft 442kts
24-Oct-20 10:22 40.160694 -118.449464 65 32450ft 443kts
24-Oct-20 10:23 40.202203 -118.298148 66 33713ft 439kts
24-Oct-20 10:24 40.242895 -118.148602 66 34779ft 436kts
24-Oct-20 10:25 40.283379 -117.999545 66 35680ft 434kts
24-Oct-20 10:26 40.323630 -117.850558 66 36445ft 433kts
24-Oct-20 10:27 40.363527 -117.702002 66 37055ft 433kts
24-Oct-20 10:28 40.403287 -117.553062 66 37068ft 434kts
24-Oct-20 10:29 40.443251 -117.402530 66 37071ft 439kts
24-Oct-20 10:30 40.483179 -117.250749 67 37075ft 440kts
24-Oct-20 10:31 40.523113 -117.098513 67 37075ft 440kts
24-Oct-20 10:32 40.560352 -116.946175 73 37075ft 440kts
24-Oct-20 10:33 40.577350 -116.786745 81 37075ft 443kts
24-Oct-20 10:34 40.587195 -116.625111 81 37075ft 442kts
24-Oct-20 10:35 40.596863 -116.463912 81 37067ft 447kts
24-Oct-20 10:36 40.606538 -116.299531 82 37052ft 449kts
24-Oct-20 10:37 40.615875 -116.136070 82 37051ft 449kts
24-Oct-20 10:38 40.625055 -115.972061 82 37050ft 449kts
24-Oct-20 10:39 40.634008 -115.807996 82 37050ft 449kts
24-Oct-20 10:40 40.642713 -115.644167 82 37050ft 449kts
24-Oct-20 10:41 40.651206 -115.480047 81 37050ft 449kts
24-Oct-20 10:42 40.659460 -115.316047 82 37050ft 449kts
24-Oct-20 10:43 40.667492 -115.151784 82 37049ft 451kts
24-Oct-20 10:44 40.675530 -114.984961 83 37049ft 461kts
24-Oct-20 10:45 40.683128 -114.815647 83 37039ft 464kts
24-Oct-20 10:46 40.690557 -114.645769 83 37011ft 464kts
24-Oct-20 10:47 40.697827 -114.475984 83 37004ft 464kts
24-Oct-20 10:48 40.704841 -114.306326 84 37002ft 464kts
24-Oct-20 10:49 40.711560 -114.137381 84 35854ft 460kts
24-Oct-20 10:50 40.718171 -113.967139 84 32224ft 473kts
24-Oct-20 10:51 40.724736 -113.791939 84 28083ft 488kts
24-Oct-20 10:52 40.725839 -113.611147 88 23999ft 504kts
24-Oct-20 10:53 40.725269 -113.425741 88 22115ft 504kts
24-Oct-20 10:54 40.724628 -113.242951 89 20289ft 493kts
24-Oct-20 10:55 40.723820 -113.071368 90 18486ft 454kts
24-Oct-20 10:56 40.722873 -112.906315 91 17011ft 446kts
24-Oct-20 10:57 40.721465 -112.743181 91 16624ft 443kts
24-Oct-20 10:58 40.719985 -112.582461 91 15622ft 435kts
24-Oct-20 10:59 40.716428 -112.424319 93 14405ft 426kts
24-Oct-20 11:00 40.711697 -112.271193 93 12222ft 410kts
24-Oct-20 11:01 40.731350 -112.130866 48 12009ft 366kts
24-Oct-20 11:02 40.813161 -112.096815 349 12008ft 281kts
24-Oct-20 11:03 40.884749 -112.107090 349 12011ft 253kts
24-Oct-20 11:04 40.954728 -112.115688 349 11828ft 248kts
24-Oct-20 11:05 41.022180 -112.123775 349 10869ft 234kts
24-Oct-20 11:06 41.072252 -112.086331 88 9706ft 247kts
24-Oct-20 11:07 41.031937 -112.019655 141 8239ft 237kts
24-Oct-20 11:08 40.972523 -111.996372 176 7393ft 213kts
24-Oct-20 11:09 40.922238 -111.990362 175 6467ft 154kts
24-Oct-20 11:10 40.879831 -111.985399 174 5725ft 151kts
24-Oct-20 11:11 40.838441 -111.980492 173 4899ft 148kts
24-Oct-20 11:12 40.798233 -111.975965 173 4228ft 129kts
24-Oct-20 11:13 40.780888 -111.974607 203 4228ft 11kts
24-Oct-20 11:14 40.780642 -111.974770 210 4228ft 0kts
24-Oct-20 11:15 40.780544 -111.975882 316 4228ft 10kts
24-Oct-20 11:16 40.784111 -111.977047 273 4228ft 16kts

Navigation Log

Ident Type
Flight plan parsing failed, navigation log unavailable